Startpagina
METAR-TAF:

METAR-TAF

Vliegvelden :

Flughafen Münster-Osnabrück

Münster-Osnabrück, Duitsland

breedte: 52-08N, lengte: 007-42E, hoogte: 48 m

Actueel weer

Dit bericht is 28 minuten geleden gemaakt, om 10:50 UTC
Wind 8 kt uit het oostnoordoosten, variërend tussen het noorden en het oostzuidoosten
Temperatuur 18°C
Vochtigheid 42%
Druk 1024 hPa
Zicht 10 km of meer
geen wolken onder 1500 m en geen cumulonimbus

METAR: EDDG 311050Z 06008KT 350V120 CAVOK 18/05 Q1024 NOSIG

Tijdstip: 13:18 (11:18 UTC)

Verwachting

Dit bericht is 6 uur en het 18 minuten geleden gemaakt, om 05:00 UTC
Verwachting geldig van 31 om 06 UTC tot 01 om 06 UTC
Wind 4 kt uit het noordoosten
Zicht 10 km of meer
geen wolken onder 1500 m en geen cumulonimbus
Wijzigt naar
van 31 om 06 UTC tot 31 om 09 UTC
Wind 10 kt uit het noordoosten
Wijzigt naar
van 31 om 18 UTC tot 31 om 20 UTC
Wind 5 kt uit het noordoosten

TAF: EDDG 310500Z 3106/0106 05004KT CAVOK BECMG 3106/3109 05010KT BECMG 3118/3120 05005KT

Waarnemingen en weersverwachtingen van meer dan 4000 vliegvelden (METAR en TAF).

De beschikbare stations zijn de gele en rode punten op de kaart.

Ga met uw muis naar het station om de naam te zien.

Klik dan om waarnemingen en weersverwachtingen te zien.

kaart wijzigen: klik op de groene knoppen met een zwart kruis om in te zoomen, op de groene knop met een streepje om uit te zoomen of op de groene pijlen voor aangrenzende kaarten.


METAR-TAF: